createdAt,value
2022-12-23T00:00:17.322Z,1350.00
2022-12-23T00:01:17.352Z,1320.00
2022-12-23T00:02:17.389Z,1341.00
2022-12-23T00:03:17.515Z,1323.00
2022-12-23T00:04:17.396Z,1348.00
2022-12-23T00:05:17.260Z,1363.00
2022-12-23T00:55:32.600Z,500.00
2022-12-23T00:56:33.493Z,500.00
2022-12-23T00:57:33.504Z,500.00
2022-12-23T00:58:33.457Z,500.00
2022-12-23T00:59:33.426Z,500.00
2022-12-23T01:00:33.408Z,500.00
2022-12-23T01:01:33.570Z,497.00
2022-12-23T01:02:33.508Z,500.00
2022-12-23T01:03:33.488Z,500.00
2022-12-23T01:04:33.329Z,502.00
2022-12-23T01:05:33.329Z,500.00
2022-12-23T01:06:33.292Z,500.00
2022-12-23T01:07:33.314Z,499.00
2022-12-23T01:08:33.263Z,500.00
2022-12-23T01:09:33.230Z,500.00
2022-12-23T01:10:33.224Z,500.00
2022-12-23T01:11:33.223Z,507.00
2022-12-23T01:12:33.288Z,502.00
2022-12-23T01:13:33.175Z,506.00
2022-12-23T01:14:33.160Z,506.00
2022-12-23T01:15:33.153Z,503.00
2022-12-23T01:16:33.147Z,501.00
2022-12-23T01:17:33.101Z,503.00
2022-12-23T01:18:33.085Z,503.00
2022-12-23T01:19:33.060Z,505.00
2022-12-23T01:20:33.048Z,502.00
2022-12-23T01:21:33.024Z,500.00
2022-12-23T01:22:33.023Z,504.00
2022-12-23T01:23:32.985Z,506.00
2022-12-23T01:24:32.958Z,503.00
2022-12-23T01:25:32.932Z,502.00
2022-12-23T01:26:32.924Z,501.00
2022-12-23T01:27:32.986Z,505.00
2022-12-23T01:28:32.885Z,503.00
2022-12-23T01:29:32.895Z,502.00
2022-12-23T01:30:32.840Z,507.00
2022-12-23T01:31:32.926Z,500.00
2022-12-23T01:32:32.856Z,504.00
2022-12-23T01:33:32.828Z,514.00
2022-12-23T01:34:37.020Z,512.00
2022-12-23T01:35:32.782Z,512.00
2022-12-23T01:36:32.743Z,511.00
2022-12-23T01:37:32.741Z,512.00
2022-12-23T01:38:32.705Z,511.00
2022-12-23T01:39:32.717Z,512.00
2022-12-23T01:40:32.667Z,509.00
2022-12-23T01:41:32.643Z,511.00
2022-12-23T01:42:32.640Z,504.00
2022-12-23T01:43:32.693Z,509.00
2022-12-23T01:44:32.596Z,505.00
2022-12-23T01:45:32.647Z,508.00
2022-12-23T01:46:32.651Z,511.00
2022-12-23T01:47:32.532Z,500.00
2022-12-23T01:48:32.575Z,514.00
2022-12-23T01:49:32.503Z,510.00
2022-12-23T01:50:32.485Z,502.00
2022-12-23T01:51:32.476Z,507.00
2022-12-23T01:52:32.447Z,517.00
2022-12-23T01:53:32.445Z,512.00
2022-12-23T01:54:32.411Z,513.00
2022-12-23T01:55:32.387Z,521.00
2022-12-23T01:56:32.373Z,515.00
2022-12-23T01:57:32.356Z,512.00
2022-12-23T01:58:32.367Z,502.00
2022-12-23T01:59:32.350Z,504.00
2022-12-23T02:00:32.294Z,512.00
2022-12-23T02:01:32.502Z,504.00
2022-12-23T02:02:32.489Z,513.00
2022-12-23T02:03:32.342Z,510.00
2022-12-23T02:04:32.247Z,506.00
2022-12-23T02:05:32.206Z,512.00
2022-12-23T02:06:32.198Z,507.00
2022-12-23T02:07:32.183Z,506.00
2022-12-23T02:08:32.221Z,510.00
2022-12-23T02:09:32.152Z,513.00
2022-12-23T02:10:32.155Z,512.00
2022-12-23T02:11:32.136Z,511.00
2022-12-23T02:12:32.119Z,525.00
2022-12-23T02:13:32.128Z,520.00
2022-12-23T02:14:32.091Z,515.00
2022-12-23T02:15:32.098Z,508.00
2022-12-23T02:16:32.097Z,520.00
2022-12-23T02:17:32.039Z,522.00
2022-12-23T02:18:32.090Z,532.00
2022-12-23T02:19:32.006Z,530.00
2022-12-23T02:20:31.993Z,511.00
2022-12-23T02:21:31.983Z,510.00
2022-12-23T02:22:31.966Z,511.00
2022-12-23T02:23:31.955Z,509.00
2022-12-23T02:24:31.931Z,505.00
2022-12-23T02:25:31.909Z,516.00
2022-12-23T02:26:31.887Z,520.00
2022-12-23T02:27:31.895Z,511.00
2022-12-23T02:28:31.866Z,505.00
2022-12-23T02:29:31.884Z,518.00
2022-12-23T02:30:31.873Z,502.00
2022-12-23T02:31:31.994Z,518.00
2022-12-23T02:32:31.803Z,519.00
2022-12-23T02:33:31.801Z,525.00
2022-12-23T02:34:31.778Z,529.00
2022-12-23T02:35:31.772Z,524.00
2022-12-23T02:36:31.742Z,516.00
2022-12-23T02:37:31.723Z,521.00
2022-12-23T02:38:31.705Z,524.00
2022-12-23T02:39:31.693Z,531.00
2022-12-23T02:40:31.684Z,527.00
2022-12-23T02:41:31.665Z,520.00
2022-12-23T02:42:31.651Z,527.00
2022-12-23T02:43:31.628Z,538.00
2022-12-23T02:44:31.606Z,539.00
2022-12-23T02:45:31.590Z,525.00
2022-12-23T02:46:31.644Z,517.00
2022-12-23T02:47:31.585Z,526.00
2022-12-23T02:48:31.543Z,531.00
2022-12-23T02:49:31.521Z,538.00
2022-12-23T02:50:31.544Z,518.00
2022-12-23T02:51:31.505Z,502.00
2022-12-23T02:52:31.489Z,520.00
2022-12-23T02:53:31.475Z,530.00
2022-12-23T02:54:31.491Z,521.00
2022-12-23T02:55:31.518Z,524.00
2022-12-23T02:56:31.447Z,519.00
2022-12-23T02:57:31.440Z,530.00
2022-12-23T02:58:31.417Z,539.00
2022-12-23T02:59:31.407Z,523.00
2022-12-23T03:00:31.395Z,525.00
2022-12-23T03:01:31.472Z,535.00
2022-12-23T03:02:31.584Z,534.00
2022-12-23T03:03:31.455Z,534.00
2022-12-23T03:04:31.464Z,522.00
2022-12-23T03:05:31.315Z,525.00
2022-12-23T03:06:31.299Z,532.00
2022-12-23T03:07:31.288Z,541.00
2022-12-23T03:08:31.299Z,545.00
2022-12-23T03:09:31.260Z,523.00
2022-12-23T03:10:31.247Z,510.00
2022-12-23T03:11:31.250Z,512.00
2022-12-23T03:12:31.242Z,534.00
2022-12-23T03:13:31.203Z,519.00
2022-12-23T03:14:31.188Z,528.00
2022-12-23T03:15:31.256Z,515.00
2022-12-23T03:16:31.716Z,521.00
2022-12-23T03:17:31.151Z,523.00
2022-12-23T03:18:31.140Z,517.00
2022-12-23T03:19:31.161Z,516.00
2022-12-23T03:20:31.110Z,527.00
2022-12-23T03:21:31.184Z,527.00
2022-12-23T03:22:31.084Z,507.00
2022-12-23T03:23:31.080Z,521.00
2022-12-23T03:24:31.060Z,529.00
2022-12-23T03:25:31.046Z,517.00
2022-12-23T03:26:31.183Z,525.00
2022-12-23T03:27:31.032Z,520.00
2022-12-23T03:28:31.013Z,521.00
2022-12-23T03:29:31.006Z,522.00
2022-12-23T03:30:30.993Z,532.00
2022-12-23T03:31:31.181Z,522.00
2022-12-23T03:32:30.969Z,516.00
2022-12-23T03:33:30.948Z,513.00
2022-12-23T03:34:31.084Z,529.00
2022-12-23T03:35:30.937Z,528.00
2022-12-23T03:36:30.904Z,521.00
2022-12-23T03:37:30.889Z,516.00
2022-12-23T03:38:30.871Z,523.00
2022-12-23T03:39:30.851Z,533.00
2022-12-23T03:40:30.836Z,527.00
2022-12-23T03:41:30.830Z,531.00
2022-12-23T03:42:30.803Z,527.00
2022-12-23T03:43:30.800Z,524.00
2022-12-23T03:44:30.785Z,538.00
2022-12-23T03:45:40.405Z,531.00
2022-12-23T03:46:30.813Z,531.00
2022-12-23T03:47:30.713Z,532.00
2022-12-23T03:48:30.715Z,532.00
2022-12-23T03:49:30.719Z,522.00
2022-12-23T03:50:30.680Z,523.00
2022-12-23T03:51:30.687Z,532.00
2022-12-23T03:52:30.693Z,528.00
2022-12-23T03:53:30.618Z,528.00
2022-12-23T03:54:30.608Z,540.00
2022-12-23T03:55:30.588Z,537.00
2022-12-23T03:56:30.638Z,533.00
2022-12-23T03:57:30.608Z,523.00
2022-12-23T03:58:30.547Z,531.00
2022-12-23T03:59:30.532Z,521.00
2022-12-23T04:00:30.521Z,520.00
2022-12-23T04:01:30.845Z,550.00
2022-12-23T04:02:30.680Z,533.00
2022-12-23T04:03:30.515Z,514.00
2022-12-23T04:04:30.467Z,525.00
2022-12-23T04:05:30.439Z,526.00
2022-12-23T04:06:30.562Z,535.00
2022-12-23T04:07:30.431Z,539.00
2022-12-23T04:08:30.392Z,540.00
2022-12-23T04:09:30.378Z,519.00
2022-12-23T04:10:30.364Z,532.00
2022-12-23T04:11:30.365Z,532.00
2022-12-23T04:12:30.336Z,530.00
2022-12-23T04:13:30.317Z,517.00
2022-12-23T04:14:30.312Z,517.00
2022-12-23T04:15:30.303Z,504.00
2022-12-23T04:16:30.408Z,517.00
2022-12-23T04:17:30.269Z,533.00
2022-12-23T04:18:30.257Z,537.00
2022-12-23T04:19:30.247Z,519.00
2022-12-23T04:20:30.232Z,527.00
2022-12-23T04:21:30.212Z,514.00
2022-12-23T04:22:30.195Z,525.00
2022-12-23T04:23:30.204Z,531.00
2022-12-23T04:24:30.164Z,514.00
2022-12-23T04:25:30.159Z,517.00
2022-12-23T04:26:30.148Z,522.00
2022-12-23T04:27:30.131Z,520.00
2022-12-23T04:28:30.110Z,512.00
2022-12-23T04:29:30.090Z,517.00
2022-12-23T04:30:34.440Z,543.00
2022-12-23T04:31:30.189Z,543.00
2022-12-23T04:32:30.050Z,541.00
2022-12-23T04:33:30.038Z,538.00
2022-12-23T04:34:30.022Z,540.00
2022-12-23T04:35:30.006Z,536.00
2022-12-23T04:36:30.123Z,537.00
2022-12-23T04:37:29.961Z,533.00
2022-12-23T04:38:29.948Z,533.00
2022-12-23T04:39:30.021Z,543.00
2022-12-23T04:40:29.911Z,531.00
2022-12-23T04:41:29.916Z,520.00
2022-12-23T04:42:29.870Z,540.00
2022-12-23T04:43:29.864Z,529.00
2022-12-23T04:44:29.831Z,539.00
2022-12-23T04:45:29.816Z,520.00
2022-12-23T04:46:29.929Z,535.00
2022-12-23T04:47:29.810Z,542.00
2022-12-23T04:48:29.802Z,538.00
2022-12-23T04:49:29.760Z,534.00
2022-12-23T04:50:29.752Z,537.00
2022-12-23T04:51:29.731Z,522.00
2022-12-23T04:52:29.717Z,532.00
2022-12-23T04:53:29.701Z,527.00
2022-12-23T04:54:29.692Z,528.00
2022-12-23T04:55:29.696Z,538.00
2022-12-23T04:56:29.664Z,529.00
2022-12-23T04:57:29.655Z,529.00
2022-12-23T04:58:29.635Z,512.00
2022-12-23T04:59:29.626Z,522.00
2022-12-23T05:00:33.986Z,519.00
2022-12-23T05:01:29.801Z,520.00
2022-12-23T05:02:29.680Z,521.00
2022-12-23T05:03:29.644Z,513.00
2022-12-23T05:04:29.585Z,520.00
2022-12-23T05:05:29.560Z,523.00
2022-12-23T05:06:29.528Z,535.00
2022-12-23T05:07:29.507Z,533.00
2022-12-23T05:08:29.503Z,546.00
2022-12-23T05:09:29.495Z,536.00
2022-12-23T05:10:29.490Z,533.00
2022-12-23T05:11:29.485Z,512.00
2022-12-23T05:12:29.450Z,525.00
2022-12-23T05:13:29.463Z,540.00
2022-12-23T05:14:29.411Z,538.00
2022-12-23T05:15:29.405Z,521.00
2022-12-23T05:16:29.451Z,533.00
2022-12-23T05:17:29.361Z,538.00
2022-12-23T05:18:29.351Z,532.00
2022-12-23T05:19:29.340Z,519.00
2022-12-23T05:20:29.332Z,542.00
2022-12-23T05:21:29.309Z,541.00
2022-12-23T05:22:29.311Z,520.00
2022-12-23T05:23:29.281Z,525.00
2022-12-23T05:24:29.286Z,517.00
2022-12-23T05:25:29.250Z,525.00
2022-12-23T05:26:29.235Z,524.00
2022-12-23T05:27:29.292Z,507.00
2022-12-23T05:28:29.187Z,520.00
2022-12-23T05:29:29.189Z,519.00
2022-12-23T05:30:29.180Z,521.00
2022-12-23T05:31:29.214Z,527.00
2022-12-23T05:32:29.134Z,522.00
2022-12-23T05:33:29.238Z,539.00
2022-12-23T05:34:29.084Z,536.00
2022-12-23T05:35:29.079Z,518.00
2022-12-23T05:36:29.057Z,526.00
2022-12-23T05:37:29.043Z,513.00
2022-12-23T05:38:29.028Z,512.00
2022-12-23T05:39:29.018Z,523.00
2022-12-23T05:40:31.429Z,524.00
2022-12-23T05:41:28.996Z,524.00
2022-12-23T05:42:28.962Z,526.00
2022-12-23T05:43:28.969Z,524.00
2022-12-23T05:44:28.956Z,526.00
2022-12-23T05:45:28.987Z,539.00
2022-12-23T05:46:29.010Z,531.00
2022-12-23T05:47:28.922Z,524.00
2022-12-23T05:48:28.885Z,535.00
2022-12-23T05:49:28.870Z,505.00
2022-12-23T05:50:28.859Z,518.00
2022-12-23T05:51:28.857Z,542.00
2022-12-23T05:52:28.845Z,538.00
2022-12-23T05:53:28.842Z,529.00
2022-12-23T05:54:28.833Z,517.00
2022-12-23T05:55:28.823Z,536.00
2022-12-23T05:56:28.814Z,516.00
2022-12-23T05:57:28.814Z,526.00
2022-12-23T05:58:28.781Z,522.00
2022-12-23T05:59:31.322Z,534.00
2022-12-23T06:00:28.763Z,528.00
2022-12-23T06:01:28.829Z,521.00
2022-12-23T06:02:28.882Z,534.00
2022-12-23T06:03:28.990Z,516.00
2022-12-23T06:04:28.790Z,519.00
2022-12-23T06:05:28.729Z,518.00
2022-12-23T06:06:28.741Z,522.00
2022-12-23T06:07:28.710Z,531.00
2022-12-23T06:08:28.693Z,521.00
2022-12-23T06:09:28.694Z,535.00
2022-12-23T06:10:28.674Z,527.00
2022-12-23T06:11:28.678Z,514.00
2022-12-23T06:12:28.640Z,515.00
2022-12-23T06:13:28.624Z,521.00
2022-12-23T06:14:29.499Z,529.00
2022-12-23T06:15:28.627Z,519.00
2022-12-23T06:16:28.636Z,508.00
2022-12-23T06:17:28.581Z,510.00
2022-12-23T06:18:28.590Z,510.00
2022-12-23T06:19:28.550Z,514.00
2022-12-23T06:20:28.557Z,510.00
2022-12-23T06:21:28.528Z,520.00
2022-12-23T06:22:28.512Z,523.00
2022-12-23T06:23:28.506Z,503.00
2022-12-23T06:24:28.499Z,521.00
2022-12-23T06:25:28.492Z,541.00
2022-12-23T06:26:28.472Z,540.00
2022-12-23T06:27:28.443Z,537.00
2022-12-23T06:28:28.431Z,535.00
2022-12-23T06:29:28.420Z,552.00
2022-12-23T06:30:28.400Z,533.00
2022-12-23T06:31:28.520Z,523.00
2022-12-23T06:32:31.641Z,532.00
2022-12-23T06:33:28.359Z,529.00
2022-12-23T06:34:28.345Z,533.00
2022-12-23T06:35:28.338Z,534.00
2022-12-23T06:36:28.329Z,525.00
2022-12-23T06:37:28.313Z,530.00
2022-12-23T06:38:28.295Z,516.00
2022-12-23T06:39:28.286Z,516.00
2022-12-23T06:40:28.279Z,514.00
2022-12-23T06:41:28.257Z,530.00
2022-12-23T06:42:28.248Z,517.00
2022-12-23T06:43:28.228Z,511.00
2022-12-23T06:44:28.252Z,513.00
2022-12-23T06:45:28.206Z,514.00
2022-12-23T06:46:28.280Z,512.00
2022-12-23T06:47:28.233Z,525.00
2022-12-23T06:48:28.175Z,517.00
2022-12-23T06:49:28.161Z,511.00
2022-12-23T06:50:28.156Z,523.00
2022-12-23T06:51:28.140Z,508.00
2022-12-23T06:52:28.135Z,520.00
2022-12-23T06:53:28.132Z,525.00
2022-12-23T06:54:28.109Z,512.00
2022-12-23T06:55:28.097Z,509.00
2022-12-23T06:56:28.082Z,518.00
2022-12-23T06:57:28.064Z,532.00
2022-12-23T06:58:28.054Z,510.00
2022-12-23T06:59:28.051Z,523.00
2022-12-23T07:00:28.041Z,523.00
2022-12-23T07:01:28.232Z,521.00
2022-12-23T07:02:28.178Z,534.00
2022-12-23T07:03:28.201Z,523.00
2022-12-23T07:04:27.985Z,533.00
2022-12-23T07:05:34.890Z,521.00
2022-12-23T07:06:27.957Z,519.00
2022-12-23T07:07:27.942Z,521.00
2022-12-23T07:08:27.925Z,522.00
2022-12-23T07:09:27.919Z,523.00
2022-12-23T07:10:27.896Z,517.00
2022-12-23T07:11:27.873Z,529.00
2022-12-23T07:12:27.864Z,520.00
2022-12-23T07:13:27.866Z,500.00
2022-12-23T07:14:27.847Z,501.00
2022-12-23T07:15:27.836Z,505.00
2022-12-23T07:16:27.873Z,510.00
2022-12-23T07:17:27.808Z,525.00
2022-12-23T07:18:27.799Z,506.00
2022-12-23T07:19:27.852Z,521.00
2022-12-23T07:20:27.774Z,537.00
2022-12-23T07:21:29.691Z,528.00
2022-12-23T07:22:27.750Z,527.00
2022-12-23T07:23:27.752Z,528.00
2022-12-23T07:24:27.734Z,528.00
2022-12-23T07:25:27.715Z,533.00
2022-12-23T07:26:27.718Z,534.00
2022-12-23T07:27:27.687Z,512.00
2022-12-23T07:28:27.692Z,517.00
2022-12-23T07:29:27.676Z,527.00
2022-12-23T07:30:27.788Z,526.00
2022-12-23T07:31:27.694Z,533.00
2022-12-23T07:32:27.668Z,527.00
2022-12-23T07:33:27.655Z,505.00
2022-12-23T07:34:27.650Z,511.00
2022-12-23T07:35:27.667Z,513.00
2022-12-23T07:36:27.630Z,515.00
2022-12-23T07:37:27.620Z,513.00
2022-12-23T07:38:27.620Z,525.00
2022-12-23T07:39:27.607Z,524.00
2022-12-23T07:40:27.662Z,526.00
2022-12-23T07:41:27.598Z,529.00
2022-12-23T07:42:44.821Z,524.00
2022-12-23T07:43:27.586Z,524.00
2022-12-23T07:44:27.562Z,524.00
2022-12-23T07:45:27.693Z,513.00
2022-12-23T07:46:27.670Z,521.00
2022-12-23T07:47:27.568Z,529.00
2022-12-23T07:48:27.617Z,518.00
2022-12-23T07:49:27.536Z,525.00
2022-12-23T07:50:27.688Z,528.00
2022-12-23T07:51:27.567Z,530.00
2022-12-23T07:52:27.527Z,520.00
2022-12-23T07:53:27.511Z,504.00
2022-12-23T07:54:27.504Z,524.00
2022-12-23T07:55:27.491Z,521.00
2022-12-23T07:56:27.499Z,519.00
2022-12-23T07:57:27.510Z,535.00
2022-12-23T07:58:27.480Z,524.00
2022-12-23T07:59:27.546Z,523.00
2022-12-23T08:00:27.455Z,515.00
2022-12-23T08:01:27.522Z,513.00
2022-12-23T08:02:27.594Z,525.00
2022-12-23T08:03:27.492Z,512.00
2022-12-23T08:04:27.445Z,520.00
2022-12-23T08:05:27.464Z,524.00
2022-12-23T08:06:27.401Z,518.00
2022-12-23T08:07:27.429Z,501.00
2022-12-23T08:08:27.398Z,523.00
2022-12-23T08:09:27.369Z,529.00
2022-12-23T08:10:27.367Z,516.00
2022-12-23T08:11:27.352Z,531.00
2022-12-23T08:12:27.341Z,538.00
2022-12-23T08:13:27.322Z,531.00
2022-12-23T08:14:27.315Z,539.00
2022-12-23T08:15:27.304Z,532.00
2022-12-23T08:16:27.351Z,528.00
2022-12-23T08:17:27.293Z,534.00
2022-12-23T08:18:27.279Z,510.00
2022-12-23T08:19:27.265Z,528.00
2022-12-23T08:20:27.271Z,523.00
2022-12-23T08:21:27.259Z,521.00
2022-12-23T08:22:27.248Z,517.00
2022-12-23T08:23:27.385Z,540.00
2022-12-23T08:24:27.222Z,532.00
2022-12-23T08:25:27.205Z,529.00
2022-12-23T08:26:27.191Z,516.00
2022-12-23T08:27:27.185Z,527.00
2022-12-23T08:28:27.172Z,519.00
2022-12-23T08:29:30.109Z,516.00
2022-12-23T08:30:27.178Z,517.00
2022-12-23T08:31:27.203Z,518.00
2022-12-23T08:32:27.107Z,520.00
2022-12-23T08:33:27.115Z,534.00
2022-12-23T08:34:27.093Z,529.00
2022-12-23T08:35:27.084Z,524.00
2022-12-23T08:36:27.068Z,511.00
2022-12-23T08:37:27.072Z,500.00
2022-12-23T08:38:27.074Z,525.00
2022-12-23T08:39:27.089Z,535.00
2022-12-23T08:40:27.039Z,524.00
2022-12-23T08:41:27.031Z,507.00
2022-12-23T08:42:27.027Z,522.00
2022-12-23T08:43:33.575Z,521.00
2022-12-23T08:44:27.062Z,521.00
2022-12-23T08:45:27.011Z,519.00
2022-12-23T08:46:27.057Z,518.00
2022-12-23T08:47:26.984Z,522.00
2022-12-23T08:48:26.977Z,531.00
2022-12-23T08:49:26.994Z,533.00
2022-12-23T08:50:26.955Z,528.00
2022-12-23T08:51:26.952Z,519.00
2022-12-23T08:52:26.937Z,521.00
2022-12-23T08:53:26.928Z,515.00
2022-12-23T08:54:26.921Z,513.00
2022-12-23T08:55:26.939Z,524.00
2022-12-23T08:56:26.899Z,516.00
2022-12-23T08:57:26.886Z,515.00
2022-12-23T08:58:26.880Z,503.00
2022-12-23T08:59:26.899Z,506.00
2022-12-23T09:00:26.918Z,532.00
2022-12-23T09:01:27.096Z,518.00
2022-12-23T09:02:27.057Z,518.00
2022-12-23T09:03:27.017Z,531.00
2022-12-23T09:04:26.837Z,524.00
2022-12-23T09:05:26.826Z,535.00
2022-12-23T09:06:29.830Z,539.00
2022-12-23T09:07:26.814Z,514.00
2022-12-23T09:08:26.812Z,507.00
2022-12-23T09:09:26.804Z,507.00
2022-12-23T09:10:26.795Z,542.00
2022-12-23T09:11:26.832Z,539.00
2022-12-23T09:12:26.773Z,531.00
2022-12-23T09:13:34.889Z,546.00
2022-12-23T09:14:26.759Z,533.00
2022-12-23T09:15:26.740Z,518.00
2022-12-23T09:16:26.811Z,527.00
2022-12-23T09:17:26.721Z,532.00
2022-12-23T09:18:26.720Z,528.00
2022-12-23T09:19:26.728Z,540.00
2022-12-23T09:20:26.688Z,520.00
2022-12-23T09:21:26.758Z,532.00
2022-12-23T09:22:26.692Z,522.00
2022-12-23T09:23:26.657Z,500.00
2022-12-23T09:42:26.428Z,534.00
2022-12-23T09:56:26.271Z,522.00
2022-12-23T11:03:25.866Z,517.00
2022-12-23T11:04:25.721Z,517.00
2022-12-23T11:05:25.715Z,500.00
2022-12-23T11:06:27.912Z,519.00
2022-12-23T11:08:25.692Z,521.00
2022-12-23T11:09:25.685Z,522.00
2022-12-23T11:10:25.674Z,523.00
2022-12-23T11:11:25.671Z,526.00
2022-12-23T11:12:25.670Z,524.00
2022-12-23T11:13:25.656Z,519.00
2022-12-23T11:14:25.646Z,505.00
2022-12-23T11:15:25.663Z,520.00
2022-12-23T11:16:25.771Z,530.00
2022-12-23T11:17:25.624Z,523.00
2022-12-23T11:18:25.607Z,527.00
2022-12-23T11:19:25.617Z,520.00
2022-12-23T11:20:25.599Z,518.00
2022-12-23T11:21:25.608Z,526.00
2022-12-23T11:22:25.582Z,518.00
2022-12-23T11:23:25.575Z,528.00
2022-12-23T11:24:25.562Z,508.00
2022-12-23T11:25:25.552Z,518.00
2022-12-23T11:26:25.542Z,512.00
2022-12-23T11:27:25.541Z,522.00
2022-12-23T11:28:25.531Z,520.00
2022-12-23T11:29:25.513Z,511.00
2022-12-23T11:30:25.497Z,522.00
2022-12-23T11:31:25.530Z,511.00
2022-12-23T11:32:25.475Z,509.00
2022-12-23T11:33:25.471Z,511.00
2022-12-23T11:34:25.538Z,516.00
2022-12-23T11:35:25.588Z,511.00
2022-12-23T11:36:25.434Z,513.00
2022-12-23T11:37:25.440Z,507.00
2022-12-23T11:38:25.405Z,500.00
2022-12-23T11:39:25.396Z,512.00
2022-12-23T11:40:25.403Z,527.00
2022-12-23T11:41:25.387Z,526.00
2022-12-23T11:42:25.368Z,522.00
2022-12-23T11:43:25.356Z,522.00
2022-12-23T11:44:25.346Z,529.00
2022-12-23T11:45:25.402Z,531.00
2022-12-23T11:46:25.488Z,525.00
2022-12-23T11:47:25.309Z,504.00
2022-12-23T11:48:25.299Z,524.00
2022-12-23T11:49:25.293Z,531.00
2022-12-23T11:50:25.279Z,525.00
2022-12-23T11:51:25.307Z,523.00
2022-12-23T11:52:25.257Z,518.00
2022-12-23T11:53:25.250Z,524.00
2022-12-23T11:54:25.239Z,528.00
2022-12-23T11:55:25.225Z,536.00
2022-12-23T11:56:25.285Z,541.00
2022-12-23T11:57:25.205Z,521.00
2022-12-23T11:58:25.202Z,517.00
2022-12-23T11:59:25.195Z,539.00
2022-12-23T12:00:25.189Z,537.00
2022-12-23T12:01:25.189Z,536.00
2022-12-23T12:02:25.259Z,529.00
2022-12-23T12:03:25.240Z,532.00
2022-12-23T12:04:25.132Z,532.00
2022-12-23T12:05:25.118Z,541.00
2022-12-23T12:06:25.107Z,544.00
2022-12-23T12:07:25.118Z,540.00
2022-12-23T12:08:25.081Z,528.00
2022-12-23T12:09:25.065Z,528.00
2022-12-23T12:10:25.076Z,533.00
2022-12-23T12:11:25.050Z,519.00
2022-12-23T12:12:25.046Z,526.00
2022-12-23T12:13:25.047Z,528.00
2022-12-23T12:14:25.025Z,530.00
2022-12-23T12:15:25.013Z,524.00
2022-12-23T12:16:25.062Z,526.00
2022-12-23T12:17:24.997Z,520.00
2022-12-23T12:18:25.121Z,517.00
2022-12-23T12:19:24.981Z,514.00
2022-12-23T12:20:24.974Z,500.00
2022-12-23T12:21:24.954Z,518.00
2022-12-23T12:22:24.954Z,534.00
2022-12-23T12:23:24.975Z,511.00
2022-12-23T12:24:24.930Z,514.00
2022-12-23T12:25:24.926Z,527.00
2022-12-23T12:26:24.908Z,511.00
2022-12-23T12:27:24.903Z,500.00
2022-12-23T12:28:24.892Z,511.00
2022-12-23T12:29:24.888Z,498.00
2022-12-23T12:30:24.985Z,525.00
2022-12-23T12:31:24.983Z,518.00
2022-12-23T12:32:24.892Z,511.00
2022-12-23T12:33:24.952Z,519.00
2022-12-23T12:34:24.833Z,528.00
2022-12-23T12:35:24.832Z,519.00
2022-12-23T12:36:24.916Z,525.00
2022-12-23T12:37:24.842Z,523.00
2022-12-23T12:38:24.798Z,515.00
2022-12-23T12:39:24.812Z,502.00
2022-12-23T12:40:24.774Z,511.00
2022-12-23T12:41:24.776Z,518.00
2022-12-23T12:42:24.758Z,522.00
2022-12-23T12:43:24.810Z,503.00
2022-12-23T12:44:24.729Z,507.00
2022-12-23T12:45:24.717Z,511.00
2022-12-23T12:46:24.819Z,515.00
2022-12-23T12:48:24.684Z,513.00
2022-12-23T12:49:24.673Z,514.00
2022-12-23T12:50:24.654Z,515.00
2022-12-23T12:51:24.633Z,513.00
2022-12-23T12:52:24.618Z,520.00
2022-12-23T12:53:24.749Z,521.00
2022-12-23T12:54:24.591Z,510.00
2022-12-23T12:55:24.608Z,515.00
2022-12-23T12:56:24.557Z,507.00
2022-12-23T12:57:24.554Z,506.00
2022-12-23T12:58:24.541Z,508.00
2022-12-23T12:59:24.509Z,513.00
2022-12-23T13:00:24.522Z,521.00
2022-12-23T13:01:24.537Z,525.00
2022-12-23T13:02:24.492Z,518.00
2022-12-23T13:03:24.485Z,517.00
2022-12-23T13:04:24.435Z,519.00
2022-12-23T13:05:24.425Z,515.00
2022-12-23T13:06:24.402Z,506.00
2022-12-23T13:07:24.419Z,502.00
2022-12-23T13:08:24.380Z,508.00
2022-12-23T13:09:24.366Z,510.00
2022-12-23T13:10:24.352Z,510.00
2022-12-23T13:11:28.324Z,508.00
2022-12-23T13:12:24.333Z,508.00
2022-12-23T13:13:24.505Z,508.00
2022-12-23T13:14:24.327Z,503.00
2022-12-23T13:15:24.284Z,509.00
2022-12-23T13:16:24.365Z,509.00
2022-12-23T13:17:24.256Z,512.00
2022-12-23T13:18:24.240Z,504.00
2022-12-23T13:19:24.233Z,503.00
2022-12-23T13:20:24.214Z,511.00
2022-12-23T13:21:24.200Z,518.00
2022-12-23T13:22:24.182Z,518.00
2022-12-23T13:23:45.581Z,511.00
2022-12-23T13:24:24.156Z,512.00
2022-12-23T13:25:24.133Z,512.00
2022-12-23T13:26:24.117Z,517.00
2022-12-23T13:27:24.127Z,521.00
2022-12-23T13:28:24.076Z,519.00
2022-12-23T13:29:24.079Z,523.00
2022-12-23T13:30:24.043Z,517.00
2022-12-23T13:31:24.098Z,521.00
2022-12-23T13:32:24.011Z,510.00
2022-12-23T13:33:24.078Z,516.00
2022-12-23T13:34:24.021Z,513.00
2022-12-23T13:35:23.958Z,509.00
2022-12-23T13:36:23.997Z,509.00
2022-12-23T13:37:23.921Z,507.00
2022-12-23T13:38:23.927Z,525.00
2022-12-23T13:39:23.896Z,527.00
2022-12-23T13:40:23.874Z,515.00
2022-12-23T13:41:23.865Z,521.00
2022-12-23T13:42:23.862Z,526.00
2022-12-23T13:43:23.902Z,522.00
2022-12-23T13:44:23.798Z,508.00
2022-12-23T13:45:23.794Z,516.00
2022-12-23T13:46:23.856Z,518.00
2022-12-23T13:47:23.780Z,515.00
2022-12-23T13:48:23.791Z,520.00
2022-12-23T13:49:23.760Z,523.00
2022-12-23T13:50:23.727Z,523.00
2022-12-23T13:51:23.712Z,514.00
2022-12-23T13:52:23.705Z,522.00
2022-12-23T13:53:23.712Z,514.00
2022-12-23T13:54:23.678Z,515.00
2022-12-23T13:55:23.667Z,519.00
2022-12-23T13:56:23.652Z,504.00
2022-12-23T13:57:23.636Z,514.00
2022-12-23T13:58:23.626Z,511.00
2022-12-23T13:59:23.626Z,513.00
2022-12-23T14:00:23.584Z,516.00
2022-12-23T14:01:23.595Z,518.00
2022-12-23T14:02:23.608Z,519.00
2022-12-23T14:03:23.564Z,521.00
2022-12-23T14:04:23.533Z,523.00
2022-12-23T14:05:23.523Z,513.00
2022-12-23T14:06:23.545Z,524.00
2022-12-23T14:07:23.494Z,526.00
2022-12-23T14:08:23.502Z,513.00
2022-12-23T14:09:23.474Z,518.00
2022-12-23T14:10:23.459Z,523.00
2022-12-23T14:11:23.473Z,520.00
2022-12-23T14:12:23.465Z,518.00
2022-12-23T14:13:23.417Z,514.00
2022-12-23T14:14:23.411Z,508.00
2022-12-23T14:15:23.417Z,519.00
2022-12-23T14:16:23.482Z,525.00
2022-12-23T14:17:23.376Z,518.00
2022-12-23T14:18:23.357Z,520.00
2022-12-23T14:19:23.345Z,515.00
2022-12-23T14:20:23.325Z,513.00
2022-12-23T14:21:23.309Z,524.00
2022-12-23T14:22:23.297Z,503.00
2022-12-23T14:23:23.281Z,529.00
2022-12-23T14:24:23.261Z,533.00
2022-12-23T14:25:23.283Z,520.00
2022-12-23T14:26:23.230Z,518.00
2022-12-23T14:27:23.218Z,521.00
2022-12-23T14:28:23.200Z,509.00
2022-12-23T14:29:23.187Z,509.00
2022-12-23T14:30:23.181Z,519.00
2022-12-23T14:31:23.318Z,503.00
2022-12-23T14:32:23.147Z,523.00
2022-12-23T14:33:23.146Z,523.00
2022-12-23T14:34:23.117Z,507.00
2022-12-23T19:32:18.072Z,513.00
2022-12-23T19:33:18.088Z,507.00
2022-12-23T19:34:18.020Z,517.00
2022-12-23T19:35:18.082Z,509.00
2022-12-23T19:36:18.062Z,521.00
2022-12-23T19:37:17.965Z,521.00
2022-12-23T19:39:17.925Z,511.00
2022-12-23T19:40:17.909Z,522.00
2022-12-23T19:41:17.900Z,503.00
2022-12-23T19:42:17.853Z,513.00
2022-12-23T19:43:17.829Z,514.00
2022-12-23T19:44:17.821Z,508.00
2022-12-23T19:45:17.794Z,515.00
2022-12-23T19:46:17.823Z,513.00
2022-12-23T19:47:17.772Z,517.00
2022-12-23T19:48:17.744Z,517.00
2022-12-23T19:49:20.195Z,520.00
2022-12-23T19:50:17.707Z,520.00
2022-12-23T19:51:17.707Z,511.00
2022-12-23T19:52:17.668Z,516.00
2022-12-23T19:53:17.643Z,511.00
2022-12-23T19:54:17.630Z,510.00